sensor_id;sensor_type;location;lat;lon;timestamp;P1;durP1;ratioP1;P2;durP2;ratioP2
72728;SDS011;60843;52.062;4.508;2023-04-03T00:00:41;1.98;;;0.68;;
72728;SDS011;60843;52.062;4.508;2023-04-03T00:03:06;2.40;;;0.63;;
72728;SDS011;60843;52.062;4.508;2023-04-03T00:05:32;3.28;;;0.80;;
72728;SDS011;60843;52.062;4.508;2023-04-03T00:07:57;1.77;;;0.75;;
72728;SDS011;60843;52.062;4.508;2023-04-03T00:10:23;1.33;;;0.70;;
72728;SDS011;60843;52.062;4.508;2023-04-03T00:12:50;1.63;;;0.57;;
72728;SDS011;60843;52.062;4.508;2023-04-03T00:15:15;5.30;;;0.77;;
72728;SDS011;60843;52.062;4.508;2023-04-03T00:17:41;2.13;;;0.93;;
72728;SDS011;60843;52.062;4.508;2023-04-03T00:20:07;3.25;;;1.02;;
72728;SDS011;60843;52.062;4.508;2023-04-03T00:22:32;1.27;;;0.70;;
72728;SDS011;60843;52.062;4.508;2023-04-03T00:24:58;2.40;;;0.83;;
72728;SDS011;60843;52.062;4.508;2023-04-03T00:27:23;1.50;;;0.80;;
72728;SDS011;60843;52.062;4.508;2023-04-03T00:29:49;1.52;;;0.90;;
72728;SDS011;60843;52.062;4.508;2023-04-03T00:32:14;5.67;;;1.00;;
72728;SDS011;60843;52.062;4.508;2023-04-03T00:34:39;1.90;;;0.80;;
72728;SDS011;60843;52.062;4.508;2023-04-03T00:37:07;1.40;;;0.80;;
72728;SDS011;60843;52.062;4.508;2023-04-03T00:39:32;2.80;;;0.70;;
72728;SDS011;60843;52.062;4.508;2023-04-03T00:41:57;1.73;;;0.82;;
72728;SDS011;60843;52.062;4.508;2023-04-03T00:46:57;1.00;;;0.70;;
72728;SDS011;60843;52.062;4.508;2023-04-03T00:49:22;2.27;;;0.90;;
72728;SDS011;60843;52.062;4.508;2023-04-03T00:51:48;2.87;;;0.70;;
72728;SDS011;60843;52.062;4.508;2023-04-03T00:54:13;1.20;;;0.70;;
72728;SDS011;60843;52.062;4.508;2023-04-03T00:56:39;3.23;;;0.70;;
72728;SDS011;60843;52.062;4.508;2023-04-03T00:59:12;2.10;;;0.77;;
72728;SDS011;60843;52.062;4.508;2023-04-03T01:01:41;4.78;;;1.25;;
72728;SDS011;60843;52.062;4.508;2023-04-03T01:04:24;1.45;;;0.80;;
72728;SDS011;60843;52.062;4.508;2023-04-03T01:06:52;2.40;;;0.80;;
72728;SDS011;60843;52.062;4.508;2023-04-03T01:09:19;4.65;;;0.90;;
72728;SDS011;60843;52.062;4.508;2023-04-03T01:11:44;1.43;;;0.70;;
72728;SDS011;60843;52.062;4.508;2023-04-03T01:14:10;2.35;;;0.80;;
72728;SDS011;60843;52.062;4.508;2023-04-03T01:16:35;2.83;;;0.80;;
72728;SDS011;60843;52.062;4.508;2023-04-03T01:19:00;1.03;;;0.83;;
72728;SDS011;60843;52.062;4.508;2023-04-03T01:23:57;2.58;;;1.10;;
72728;SDS011;60843;52.062;4.508;2023-04-03T01:26:30;4.18;;;1.20;;
72728;SDS011;60843;52.062;4.508;2023-04-03T01:28:58;2.83;;;0.77;;
72728;SDS011;60843;52.062;4.508;2023-04-03T01:31:26;2.00;;;0.90;;
72728;SDS011;60843;52.062;4.508;2023-04-03T01:33:56;1.75;;;0.70;;
72728;SDS011;60843;52.062;4.508;2023-04-03T01:36:24;1.20;;;0.68;;
72728;SDS011;60843;52.062;4.508;2023-04-03T01:38:51;1.67;;;0.90;;
72728;SDS011;60843;52.062;4.508;2023-04-03T01:41:17;4.15;;;0.80;;
72728;SDS011;60843;52.062;4.508;2023-04-03T01:43:43;1.38;;;0.80;;
72728;SDS011;60843;52.062;4.508;2023-04-03T01:46:09;1.27;;;0.65;;
72728;SDS011;60843;52.062;4.508;2023-04-03T01:48:34;2.08;;;0.95;;
72728;SDS011;60843;52.062;4.508;2023-04-03T01:51:00;2.05;;;0.80;;
72728;SDS011;60843;52.062;4.508;2023-04-03T01:53:25;1.48;;;0.75;;
72728;SDS011;60843;52.062;4.508;2023-04-03T01:55:51;2.95;;;0.75;;
72728;SDS011;60843;52.062;4.508;2023-04-03T01:58:22;1.63;;;0.68;;
72728;SDS011;60843;52.062;4.508;2023-04-03T02:00:47;1.65;;;1.00;;
72728;SDS011;60843;52.062;4.508;2023-04-03T02:03:13;2.03;;;0.95;;
72728;SDS011;60843;52.062;4.508;2023-04-03T02:05:38;5.80;;;1.00;;
72728;SDS011;60843;52.062;4.508;2023-04-03T02:08:04;2.75;;;0.98;;
72728;SDS011;60843;52.062;4.508;2023-04-03T02:10:31;1.63;;;0.88;;
72728;SDS011;60843;52.062;4.508;2023-04-03T02:12:57;2.22;;;0.80;;
72728;SDS011;60843;52.062;4.508;2023-04-03T02:15:22;2.50;;;0.80;;
72728;SDS011;60843;52.062;4.508;2023-04-03T02:17:47;2.33;;;0.90;;
72728;SDS011;60843;52.062;4.508;2023-04-03T02:20:13;1.88;;;0.88;;
72728;SDS011;60843;52.062;4.508;2023-04-03T02:22:38;3.50;;;0.80;;
72728;SDS011;60843;52.062;4.508;2023-04-03T02:25:04;2.88;;;0.77;;
72728;SDS011;60843;52.062;4.508;2023-04-03T02:27:30;1.38;;;0.75;;
72728;SDS011;60843;52.062;4.508;2023-04-03T02:29:56;4.10;;;1.45;;
72728;SDS011;60843;52.062;4.508;2023-04-03T02:34:51;3.50;;;1.00;;
72728;SDS011;60843;52.062;4.508;2023-04-03T02:37:16;3.73;;;1.17;;
72728;SDS011;60843;52.062;4.508;2023-04-03T02:39:42;1.60;;;0.93;;
72728;SDS011;60843;52.062;4.508;2023-04-03T02:42:07;3.78;;;0.90;;
72728;SDS011;60843;52.062;4.508;2023-04-03T02:44:33;1.90;;;0.85;;
72728;SDS011;60843;52.062;4.508;2023-04-03T02:46:58;2.20;;;0.80;;
72728;SDS011;60843;52.062;4.508;2023-04-03T02:49:23;2.33;;;1.03;;
72728;SDS011;60843;52.062;4.508;2023-04-03T02:51:50;2.97;;;0.90;;
72728;SDS011;60843;52.062;4.508;2023-04-03T02:54:17;7.03;;;0.90;;
72728;SDS011;60843;52.062;4.508;2023-04-03T02:56:42;3.85;;;1.00;;
72728;SDS011;60843;52.062;4.508;2023-04-03T02:59:08;5.47;;;1.00;;
72728;SDS011;60843;52.062;4.508;2023-04-03T03:01:33;2.97;;;1.10;;
72728;SDS011;60843;52.062;4.508;2023-04-03T03:03:59;3.28;;;1.25;;
72728;SDS011;60843;52.062;4.508;2023-04-03T03:06:25;2.85;;;1.23;;
72728;SDS011;60843;52.062;4.508;2023-04-03T03:08:51;5.35;;;1.25;;
72728;SDS011;60843;52.062;4.508;2023-04-03T03:11:18;2.97;;;1.08;;
72728;SDS011;60843;52.062;4.508;2023-04-03T03:13:43;2.50;;;1.10;;
72728;SDS011;60843;52.062;4.508;2023-04-03T03:16:09;2.70;;;0.90;;
72728;SDS011;60843;52.062;4.508;2023-04-03T03:18:35;2.05;;;0.88;;
72728;SDS011;60843;52.062;4.508;2023-04-03T03:21:01;3.97;;;0.90;;
72728;SDS011;60843;52.062;4.508;2023-04-03T03:23:29;2.08;;;1.10;;
72728;SDS011;60843;52.062;4.508;2023-04-03T03:26:01;2.05;;;0.98;;
72728;SDS011;60843;52.062;4.508;2023-04-03T03:28:28;2.63;;;0.90;;
72728;SDS011;60843;52.062;4.508;2023-04-03T03:30:53;2.75;;;1.20;;
72728;SDS011;60843;52.062;4.508;2023-04-03T03:33:19;2.10;;;0.98;;
72728;SDS011;60843;52.062;4.508;2023-04-03T03:35:44;4.00;;;0.93;;
72728;SDS011;60843;52.062;4.508;2023-04-03T03:38:10;3.53;;;1.00;;
72728;SDS011;60843;52.062;4.508;2023-04-03T03:40:41;2.50;;;0.80;;
72728;SDS011;60843;52.062;4.508;2023-04-03T03:43:07;2.85;;;1.10;;
72728;SDS011;60843;52.062;4.508;2023-04-03T03:45:33;4.50;;;1.13;;
72728;SDS011;60843;52.062;4.508;2023-04-03T03:47:58;5.07;;;1.00;;
72728;SDS011;60843;52.062;4.508;2023-04-03T03:50:24;1.90;;;1.30;;
72728;SDS011;60843;52.062;4.508;2023-04-03T03:52:49;3.70;;;1.15;;
72728;SDS011;60843;52.062;4.508;2023-04-03T03:55:15;2.53;;;0.82;;
72728;SDS011;60843;52.062;4.508;2023-04-03T03:57:40;1.58;;;0.90;;
72728;SDS011;60843;52.062;4.508;2023-04-03T04:00:06;4.17;;;1.30;;
72728;SDS011;60843;52.062;4.508;2023-04-03T04:02:32;4.22;;;1.20;;
72728;SDS011;60843;52.062;4.508;2023-04-03T04:04:57;2.90;;;1.05;;
72728;SDS011;60843;52.062;4.508;2023-04-03T04:07:23;3.47;;;1.03;;
72728;SDS011;60843;52.062;4.508;2023-04-03T04:09:48;7.47;;;1.30;;
72728;SDS011;60843;52.062;4.508;2023-04-03T04:12:14;5.18;;;1.67;;
72728;SDS011;60843;52.062;4.508;2023-04-03T04:14:39;5.00;;;1.45;;
72728;SDS011;60843;52.062;4.508;2023-04-03T04:17:05;2.63;;;1.17;;
72728;SDS011;60843;52.062;4.508;2023-04-03T04:19:30;2.00;;;0.90;;
72728;SDS011;60843;52.062;4.508;2023-04-03T04:21:55;3.03;;;1.20;;
72728;SDS011;60843;52.062;4.508;2023-04-03T04:24:21;1.75;;;0.98;;
72728;SDS011;60843;52.062;4.508;2023-04-03T04:26:47;3.47;;;1.30;;
72728;SDS011;60843;52.062;4.508;2023-04-03T04:29:13;2.72;;;1.23;;
72728;SDS011;60843;52.062;4.508;2023-04-03T04:31:38;3.33;;;1.25;;
72728;SDS011;60843;52.062;4.508;2023-04-03T04:34:04;5.80;;;1.38;;
72728;SDS011;60843;52.062;4.508;2023-04-03T04:36:29;2.80;;;0.95;;
72728;SDS011;60843;52.062;4.508;2023-04-03T04:38:55;2.90;;;1.20;;
72728;SDS011;60843;52.062;4.508;2023-04-03T04:41:21;3.17;;;1.13;;
72728;SDS011;60843;52.062;4.508;2023-04-03T04:43:48;3.25;;;0.82;;
72728;SDS011;60843;52.062;4.508;2023-04-03T04:46:14;2.05;;;1.00;;
72728;SDS011;60843;52.062;4.508;2023-04-03T04:48:40;5.55;;;1.50;;
72728;SDS011;60843;52.062;4.508;2023-04-03T04:51:06;1.90;;;1.10;;
72728;SDS011;60843;52.062;4.508;2023-04-03T04:53:31;2.05;;;1.23;;
72728;SDS011;60843;52.062;4.508;2023-04-03T04:55:57;2.72;;;1.40;;
72728;SDS011;60843;52.062;4.508;2023-04-03T04:58:22;7.17;;;1.50;;
72728;SDS011;60843;52.062;4.508;2023-04-03T05:00:47;2.35;;;1.13;;
72728;SDS011;60843;52.062;4.508;2023-04-03T05:03:13;5.13;;;1.67;;
72728;SDS011;60843;52.062;4.508;2023-04-03T05:05:38;4.55;;;1.42;;
72728;SDS011;60843;52.062;4.508;2023-04-03T05:08:04;5.97;;;1.50;;
72728;SDS011;60843;52.062;4.508;2023-04-03T05:10:30;2.53;;;1.13;;
72728;SDS011;60843;52.062;4.508;2023-04-03T05:12:56;4.38;;;1.48;;
72728;SDS011;60843;52.062;4.508;2023-04-03T05:15:21;2.63;;;1.30;;
72728;SDS011;60843;52.062;4.508;2023-04-03T05:17:47;1.97;;;1.20;;
72728;SDS011;60843;52.062;4.508;2023-04-03T05:20:12;2.80;;;1.23;;
72728;SDS011;60843;52.062;4.508;2023-04-03T05:22:38;3.30;;;1.85;;
72728;SDS011;60843;52.062;4.508;2023-04-03T05:25:04;2.30;;;1.17;;
72728;SDS011;60843;52.062;4.508;2023-04-03T05:27:32;3.65;;;1.45;;
72728;SDS011;60843;52.062;4.508;2023-04-03T05:29:57;2.20;;;1.25;;
72728;SDS011;60843;52.062;4.508;2023-04-03T05:32:23;4.15;;;1.65;;
72728;SDS011;60843;52.062;4.508;2023-04-03T05:34:50;3.58;;;1.50;;
72728;SDS011;60843;52.062;4.508;2023-04-03T05:37:16;3.33;;;1.48;;
72728;SDS011;60843;52.062;4.508;2023-04-03T05:39:42;6.53;;;1.50;;
72728;SDS011;60843;52.062;4.508;2023-04-03T05:42:07;3.75;;;1.55;;
72728;SDS011;60843;52.062;4.508;2023-04-03T05:44:33;5.28;;;1.90;;
72728;SDS011;60843;52.062;4.508;2023-04-03T05:46:58;2.97;;;1.43;;
72728;SDS011;60843;52.062;4.508;2023-04-03T05:49:24;7.00;;;1.67;;
72728;SDS011;60843;52.062;4.508;2023-04-03T05:51:49;4.83;;;1.80;;
72728;SDS011;60843;52.062;4.508;2023-04-03T05:56:47;4.95;;;1.55;;
72728;SDS011;60843;52.062;4.508;2023-04-03T05:59:15;4.88;;;1.60;;
72728;SDS011;60843;52.062;4.508;2023-04-03T06:01:41;3.20;;;1.30;;
72728;SDS011;60843;52.062;4.508;2023-04-03T06:04:07;8.13;;;1.60;;
72728;SDS011;60843;52.062;4.508;2023-04-03T06:06:53;2.53;;;1.30;;
72728;SDS011;60843;52.062;4.508;2023-04-03T06:09:21;2.78;;;1.40;;
72728;SDS011;60843;52.062;4.508;2023-04-03T06:11:49;3.95;;;1.70;;
72728;SDS011;60843;52.062;4.508;2023-04-03T06:14:14;10.20;;;1.73;;
72728;SDS011;60843;52.062;4.508;2023-04-03T06:16:40;6.00;;;1.50;;
72728;SDS011;60843;52.062;4.508;2023-04-03T06:19:07;2.25;;;1.25;;
72728;SDS011;60843;52.062;4.508;2023-04-03T06:21:33;6.68;;;1.80;;
72728;SDS011;60843;52.062;4.508;2023-04-03T06:23:59;2.65;;;1.45;;
72728;SDS011;60843;52.062;4.508;2023-04-03T06:26:24;5.68;;;1.95;;
72728;SDS011;60843;52.062;4.508;2023-04-03T06:28:49;3.87;;;1.50;;
72728;SDS011;60843;52.062;4.508;2023-04-03T06:31:15;5.03;;;1.30;;
72728;SDS011;60843;52.062;4.508;2023-04-03T06:33:41;5.78;;;1.42;;
72728;SDS011;60843;52.062;4.508;2023-04-03T06:36:06;5.25;;;1.75;;
72728;SDS011;60843;52.062;4.508;2023-04-03T06:38:34;4.53;;;1.77;;
72728;SDS011;60843;52.062;4.508;2023-04-03T06:41:00;4.55;;;1.15;;
72728;SDS011;60843;52.062;4.508;2023-04-03T06:43:25;5.82;;;1.33;;
72728;SDS011;60843;52.062;4.508;2023-04-03T06:45:51;3.92;;;1.42;;
72728;SDS011;60843;52.062;4.508;2023-04-03T06:48:16;3.35;;;1.10;;
72728;SDS011;60843;52.062;4.508;2023-04-03T06:50:42;3.67;;;1.30;;
72728;SDS011;60843;52.062;4.508;2023-04-03T06:53:08;7.55;;;1.33;;
72728;SDS011;60843;52.062;4.508;2023-04-03T06:55:34;3.35;;;1.13;;
72728;SDS011;60843;52.062;4.508;2023-04-03T06:58:00;2.67;;;1.08;;
72728;SDS011;60843;52.062;4.508;2023-04-03T07:00:26;3.53;;;1.15;;
72728;SDS011;60843;52.062;4.508;2023-04-03T07:02:52;4.70;;;1.27;;
72728;SDS011;60843;52.062;4.508;2023-04-03T07:05:17;3.55;;;1.20;;
72728;SDS011;60843;52.062;4.508;2023-04-03T07:07:43;2.40;;;1.20;;
72728;SDS011;60843;52.062;4.508;2023-04-03T07:10:08;5.57;;;1.90;;
72728;SDS011;60843;52.062;4.508;2023-04-03T07:12:34;4.95;;;1.00;;
72728;SDS011;60843;52.062;4.508;2023-04-03T07:15:00;9.10;;;1.50;;
72728;SDS011;60843;52.062;4.508;2023-04-03T07:17:26;2.70;;;0.98;;
72728;SDS011;60843;52.062;4.508;2023-04-03T07:19:51;6.22;;;1.50;;
72728;SDS011;60843;52.062;4.508;2023-04-03T07:22:18;3.80;;;1.52;;
72728;SDS011;60843;52.062;4.508;2023-04-03T07:24:43;2.15;;;1.17;;
72728;SDS011;60843;52.062;4.508;2023-04-03T07:27:09;2.22;;;1.15;;
72728;SDS011;60843;52.062;4.508;2023-04-03T07:29:35;4.43;;;1.20;;
72728;SDS011;60843;52.062;4.508;2023-04-03T07:32:01;5.80;;;1.27;;
72728;SDS011;60843;52.062;4.508;2023-04-03T07:34:27;5.63;;;1.23;;
72728;SDS011;60843;52.062;4.508;2023-04-03T07:36:59;5.00;;;0.90;;
72728;SDS011;60843;52.062;4.508;2023-04-03T07:39:25;5.18;;;1.73;;
72728;SDS011;60843;52.062;4.508;2023-04-03T07:41:51;3.15;;;1.23;;
72728;SDS011;60843;52.062;4.508;2023-04-03T07:44:17;4.53;;;1.27;;
72728;SDS011;60843;52.062;4.508;2023-04-03T07:46:42;4.10;;;1.45;;
72728;SDS011;60843;52.062;4.508;2023-04-03T07:49:08;4.25;;;1.10;;
72728;SDS011;60843;52.062;4.508;2023-04-03T07:51:33;2.38;;;0.47;;
72728;SDS011;60843;52.062;4.508;2023-04-03T07:53:59;2.25;;;1.10;;
72728;SDS011;60843;52.062;4.508;2023-04-03T07:56:25;4.78;;;1.25;;
72728;SDS011;60843;52.062;4.508;2023-04-03T07:58:51;6.10;;;1.17;;
72728;SDS011;60843;52.062;4.508;2023-04-03T08:01:17;7.50;;;1.20;;
72728;SDS011;60843;52.062;4.508;2023-04-03T08:03:42;2.58;;;1.17;;
72728;SDS011;60843;52.062;4.508;2023-04-03T08:06:08;2.20;;;0.90;;
72728;SDS011;60843;52.062;4.508;2023-04-03T08:08:34;3.30;;;1.25;;
72728;SDS011;60843;52.062;4.508;2023-04-03T08:11:00;5.75;;;1.27;;
72728;SDS011;60843;52.062;4.508;2023-04-03T08:13:27;1.88;;;0.80;;
72728;SDS011;60843;52.062;4.508;2023-04-03T08:15:53;3.28;;;1.05;;
72728;SDS011;60843;52.062;4.508;2023-04-03T08:18:19;2.60;;;1.02;;
72728;SDS011;60843;52.062;4.508;2023-04-03T08:20:46;3.40;;;1.00;;
72728;SDS011;60843;52.062;4.508;2023-04-03T08:23:13;3.42;;;0.93;;
72728;SDS011;60843;52.062;4.508;2023-04-03T08:25:40;2.80;;;0.95;;
72728;SDS011;60843;52.062;4.508;2023-04-03T08:28:06;2.60;;;1.10;;
72728;SDS011;60843;52.062;4.508;2023-04-03T08:30:33;4.97;;;1.50;;
72728;SDS011;60843;52.062;4.508;2023-04-03T08:35:42;4.65;;;0.95;;
72728;SDS011;60843;52.062;4.508;2023-04-03T08:38:10;5.00;;;1.10;;
72728;SDS011;60843;52.062;4.508;2023-04-03T08:40:42;3.35;;;1.10;;
72728;SDS011;60843;52.062;4.508;2023-04-03T08:43:21;2.38;;;1.02;;
72728;SDS011;60843;52.062;4.508;2023-04-03T08:46:05;2.85;;;1.25;;
72728;SDS011;60843;52.062;4.508;2023-04-03T08:48:32;3.60;;;1.08;;
72728;SDS011;60843;52.062;4.508;2023-04-03T08:51:00;5.40;;;1.23;;
72728;SDS011;60843;52.062;4.508;2023-04-03T08:53:30;5.20;;;1.10;;
72728;SDS011;60843;52.062;4.508;2023-04-03T08:55:58;1.75;;;0.80;;
72728;SDS011;60843;52.062;4.508;2023-04-03T08:58:33;2.75;;;1.17;;
72728;SDS011;60843;52.062;4.508;2023-04-03T09:01:19;2.45;;;0.75;;
72728;SDS011;60843;52.062;4.508;2023-04-03T09:03:46;0.70;;;0.50;;
72728;SDS011;60843;52.062;4.508;2023-04-03T09:11:48;2.38;;;1.00;;
72728;SDS011;60843;52.062;4.508;2023-04-03T09:17:20;1.92;;;0.60;;
72728;SDS011;60843;52.062;4.508;2023-04-03T09:22:17;1.35;;;0.45;;
72728;SDS011;60843;52.062;4.508;2023-04-03T09:24:50;0.85;;;0.40;;
72728;SDS011;60843;52.062;4.508;2023-04-03T09:27:21;1.88;;;0.57;;
72728;SDS011;60843;52.062;4.508;2023-04-03T09:29:46;2.40;;;0.57;;
72728;SDS011;60843;52.062;4.508;2023-04-03T09:32:18;1.65;;;0.52;;
72728;SDS011;60843;52.062;4.508;2023-04-03T09:34:46;2.00;;;0.50;;
72728;SDS011;60843;52.062;4.508;2023-04-03T09:37:12;2.30;;;0.50;;
72728;SDS011;60843;52.062;4.508;2023-04-03T09:40:01;2.30;;;0.50;;
72728;SDS011;60843;52.062;4.508;2023-04-03T09:42:26;0.98;;;0.20;;
72728;SDS011;60843;52.062;4.508;2023-04-03T09:44:59;0.80;;;0.38;;
72728;SDS011;60843;52.062;4.508;2023-04-03T09:47:27;1.08;;;0.32;;
72728;SDS011;60843;52.062;4.508;2023-04-03T09:52:47;1.33;;;0.38;;
72728;SDS011;60843;52.062;4.508;2023-04-03T09:57:41;1.88;;;0.38;;
72728;SDS011;60843;52.062;4.508;2023-04-03T10:00:41;1.05;;;0.60;;
72728;SDS011;60843;52.062;4.508;2023-04-03T10:03:04;5.00;;;0.60;;
72728;SDS011;60843;52.062;4.508;2023-04-03T10:08:11;2.08;;;0.30;;
72728;SDS011;60843;52.062;4.508;2023-04-03T10:10:46;1.65;;;0.50;;
72728;SDS011;60843;52.062;4.508;2023-04-03T10:13:14;0.52;;;0.40;;
72728;SDS011;60843;52.062;4.508;2023-04-03T10:15:45;0.50;;;0.28;;
72728;SDS011;60843;52.062;4.508;2023-04-03T10:24:28;1.50;;;0.30;;
72728;SDS011;60843;52.062;4.508;2023-04-03T10:29:55;2.60;;;0.35;;
72728;SDS011;60843;52.062;4.508;2023-04-03T10:32:52;1.20;;;0.30;;
72728;SDS011;60843;52.062;4.508;2023-04-03T10:47:02;1.45;;;0.52;;
72728;SDS011;60843;52.062;4.508;2023-04-03T10:49:36;1.90;;;0.52;;
72728;SDS011;60843;52.062;4.508;2023-04-03T10:54:38;2.23;;;0.83;;
72728;SDS011;60843;52.062;4.508;2023-04-03T10:57:08;0.70;;;0.40;;
72728;SDS011;60843;52.062;4.508;2023-04-03T11:04:36;0.98;;;0.60;;
72728;SDS011;60843;52.062;4.508;2023-04-03T11:14:52;1.50;;;0.57;;
72728;SDS011;60843;52.062;4.508;2023-04-03T11:22:36;0.57;;;0.30;;
72728;SDS011;60843;52.062;4.508;2023-04-03T11:27:38;1.15;;;0.30;;
72728;SDS011;60843;52.062;4.508;2023-04-03T11:30:07;0.93;;;0.30;;
72728;SDS011;60843;52.062;4.508;2023-04-03T11:35:37;0.85;;;0.40;;
72728;SDS011;60843;52.062;4.508;2023-04-03T11:38:03;0.90;;;0.40;;
72728;SDS011;60843;52.062;4.508;2023-04-03T11:40:32;0.47;;;0.32;;
72728;SDS011;60843;52.062;4.508;2023-04-03T11:47:53;0.93;;;0.30;;
72728;SDS011;60843;52.062;4.508;2023-04-03T11:50:40;0.82;;;0.20;;
72728;SDS011;60843;52.062;4.508;2023-04-03T11:55:43;0.60;;;0.38;;
72728;SDS011;60843;52.062;4.508;2023-04-03T12:08:25;2.47;;;0.30;;
72728;SDS011;60843;52.062;4.508;2023-04-03T12:46:35;1.58;;;0.40;;
72728;SDS011;60843;52.062;4.508;2023-04-03T12:51:45;0.80;;;0.30;;
72728;SDS011;60843;52.062;4.508;2023-04-03T12:54:16;0.50;;;0.32;;
72728;SDS011;60843;52.062;4.508;2023-04-03T12:56:45;0.73;;;0.30;;
72728;SDS011;60843;52.062;4.508;2023-04-03T13:01:53;1.05;;;0.30;;
72728;SDS011;60843;52.062;4.508;2023-04-03T13:04:22;0.90;;;0.30;;
72728;SDS011;60843;52.062;4.508;2023-04-03T13:06:48;0.90;;;0.35;;
72728;SDS011;60843;52.062;4.508;2023-04-03T13:09:25;0.45;;;0.25;;
72728;SDS011;60843;52.062;4.508;2023-04-03T13:11:56;0.90;;;0.40;;
72728;SDS011;60843;52.062;4.508;2023-04-03T13:14:36;1.33;;;0.60;;
72728;SDS011;60843;52.062;4.508;2023-04-03T13:17:15;1.17;;;0.45;;
72728;SDS011;60843;52.062;4.508;2023-04-03T13:19:41;1.13;;;0.50;;
72728;SDS011;60843;52.062;4.508;2023-04-03T13:22:11;1.73;;;0.50;;
72728;SDS011;60843;52.062;4.508;2023-04-03T13:24:49;2.35;;;0.77;;
72728;SDS011;60843;52.062;4.508;2023-04-03T13:27:22;1.33;;;0.30;;
72728;SDS011;60843;52.062;4.508;2023-04-03T13:29:51;1.88;;;0.65;;
72728;SDS011;60843;52.062;4.508;2023-04-03T13:32:19;2.22;;;0.50;;
72728;SDS011;60843;52.062;4.508;2023-04-03T13:34:46;2.97;;;0.50;;
72728;SDS011;60843;52.062;4.508;2023-04-03T13:42:43;2.80;;;0.70;;
72728;SDS011;60843;52.062;4.508;2023-04-03T13:47:48;3.42;;;0.70;;
72728;SDS011;60843;52.062;4.508;2023-04-03T13:50:20;1.60;;;0.35;;
72728;SDS011;60843;52.062;4.508;2023-04-03T13:55:35;1.15;;;0.45;;
72728;SDS011;60843;52.062;4.508;2023-04-03T14:05:50;1.95;;;0.60;;
72728;SDS011;60843;52.062;4.508;2023-04-03T14:08:16;3.72;;;0.40;;
72728;SDS011;60843;52.062;4.508;2023-04-03T14:10:44;1.58;;;0.55;;
72728;SDS011;60843;52.062;4.508;2023-04-03T14:13:13;1.42;;;0.80;;
72728;SDS011;60843;52.062;4.508;2023-04-03T14:15:39;5.13;;;0.60;;
72728;SDS011;60843;52.062;4.508;2023-04-03T14:18:05;1.48;;;0.57;;
72728;SDS011;60843;52.062;4.508;2023-04-03T14:20:31;1.95;;;0.55;;
72728;SDS011;60843;52.062;4.508;2023-04-03T14:22:56;1.50;;;0.60;;
72728;SDS011;60843;52.062;4.508;2023-04-03T14:25:22;3.33;;;0.52;;
72728;SDS011;60843;52.062;4.508;2023-04-03T14:27:51;3.92;;;0.68;;
72728;SDS011;60843;52.062;4.508;2023-04-03T14:30:27;1.70;;;0.40;;
72728;SDS011;60843;52.062;4.508;2023-04-03T14:32:55;0.50;;;0.30;;
72728;SDS011;60843;52.062;4.508;2023-04-03T14:35:21;0.70;;;0.50;;
72728;SDS011;60843;52.062;4.508;2023-04-03T14:37:47;1.30;;;0.45;;
72728;SDS011;60843;52.062;4.508;2023-04-03T14:40:18;1.73;;;0.60;;
72728;SDS011;60843;52.062;4.508;2023-04-03T14:42:48;1.45;;;0.60;;
72728;SDS011;60843;52.062;4.508;2023-04-03T14:45:14;1.25;;;0.50;;
72728;SDS011;60843;52.062;4.508;2023-04-03T14:47:44;2.22;;;0.55;;
72728;SDS011;60843;52.062;4.508;2023-04-03T14:50:16;2.25;;;0.43;;
72728;SDS011;60843;52.062;4.508;2023-04-03T14:52:44;3.33;;;0.57;;
72728;SDS011;60843;52.062;4.508;2023-04-03T14:55:12;3.45;;;0.60;;
72728;SDS011;60843;52.062;4.508;2023-04-03T14:57:39;1.40;;;0.47;;
72728;SDS011;60843;52.062;4.508;2023-04-03T15:00:04;1.02;;;0.52;;
72728;SDS011;60843;52.062;4.508;2023-04-03T15:02:36;1.98;;;0.68;;
72728;SDS011;60843;52.062;4.508;2023-04-03T15:05:04;1.13;;;0.55;;
72728;SDS011;60843;52.062;4.508;2023-04-03T15:07:35;0.70;;;0.32;;
72728;SDS011;60843;52.062;4.508;2023-04-03T15:10:21;0.90;;;0.60;;
72728;SDS011;60843;52.062;4.508;2023-04-03T15:12:49;1.65;;;0.38;;
72728;SDS011;60843;52.062;4.508;2023-04-03T15:15:16;2.33;;;0.50;;
72728;SDS011;60843;52.062;4.508;2023-04-03T15:17:44;0.95;;;0.28;;
72728;SDS011;60843;52.062;4.508;2023-04-03T15:20:15;1.17;;;0.68;;
72728;SDS011;60843;52.062;4.508;2023-04-03T15:22:42;0.75;;;0.30;;
72728;SDS011;60843;52.062;4.508;2023-04-03T15:25:07;1.52;;;0.57;;
72728;SDS011;60843;52.062;4.508;2023-04-03T15:27:33;1.67;;;0.70;;
72728;SDS011;60843;52.062;4.508;2023-04-03T15:29:59;1.88;;;0.80;;
72728;SDS011;60843;52.062;4.508;2023-04-03T15:32:25;1.25;;;0.55;;
72728;SDS011;60843;52.062;4.508;2023-04-03T15:34:50;1.25;;;0.63;;
72728;SDS011;60843;52.062;4.508;2023-04-03T15:37:16;1.92;;;0.80;;
72728;SDS011;60843;52.062;4.508;2023-04-03T15:39:41;2.78;;;0.90;;
72728;SDS011;60843;52.062;4.508;2023-04-03T15:42:06;0.77;;;0.33;;
72728;SDS011;60843;52.062;4.508;2023-04-03T15:44:33;1.35;;;0.50;;
72728;SDS011;60843;52.062;4.508;2023-04-03T15:46:59;1.48;;;0.70;;
72728;SDS011;60843;52.062;4.508;2023-04-03T15:49:24;2.22;;;0.88;;
72728;SDS011;60843;52.062;4.508;2023-04-03T15:51:50;1.80;;;0.70;;
72728;SDS011;60843;52.062;4.508;2023-04-03T15:54:15;1.80;;;0.70;;
72728;SDS011;60843;52.062;4.508;2023-04-03T15:56:46;1.95;;;0.82;;
72728;SDS011;60843;52.062;4.508;2023-04-03T15:59:11;4.47;;;1.05;;
72728;SDS011;60843;52.062;4.508;2023-04-03T16:01:37;1.27;;;0.77;;
72728;SDS011;60843;52.062;4.508;2023-04-03T16:04:04;2.53;;;0.65;;
72728;SDS011;60843;52.062;4.508;2023-04-03T16:06:30;2.38;;;0.73;;
72728;SDS011;60843;52.062;4.508;2023-04-03T16:11:25;2.35;;;0.73;;
72728;SDS011;60843;52.062;4.508;2023-04-03T16:13:51;2.30;;;0.70;;
72728;SDS011;60843;52.062;4.508;2023-04-03T16:16:16;1.55;;;0.60;;
72728;SDS011;60843;52.062;4.508;2023-04-03T16:18:42;4.60;;;0.70;;
72728;SDS011;60843;52.062;4.508;2023-04-03T16:21:07;2.25;;;0.65;;
72728;SDS011;60843;52.062;4.508;2023-04-03T16:23:33;3.38;;;0.70;;
72728;SDS011;60843;52.062;4.508;2023-04-03T16:25:59;1.73;;;0.70;;
72728;SDS011;60843;52.062;4.508;2023-04-03T16:28:25;2.83;;;0.67;;
72728;SDS011;60843;52.062;4.508;2023-04-03T16:30:51;0.82;;;0.32;;
72728;SDS011;60843;52.062;4.508;2023-04-03T16:33:16;4.28;;;1.17;;
72728;SDS011;60843;52.062;4.508;2023-04-03T16:35:42;2.50;;;0.75;;
72728;SDS011;60843;52.062;4.508;2023-04-03T16:38:09;2.20;;;0.63;;
72728;SDS011;60843;52.062;4.508;2023-04-03T16:40:34;2.25;;;0.68;;
72728;SDS011;60843;52.062;4.508;2023-04-03T16:43:00;1.90;;;0.63;;
72728;SDS011;60843;52.062;4.508;2023-04-03T16:45:26;1.33;;;0.47;;
72728;SDS011;60843;52.062;4.508;2023-04-03T16:47:51;2.25;;;0.70;;
72728;SDS011;60843;52.062;4.508;2023-04-03T16:50:17;1.92;;;0.45;;
72728;SDS011;60843;52.062;4.508;2023-04-03T16:52:44;1.63;;;0.73;;
72728;SDS011;60843;52.062;4.508;2023-04-03T16:55:10;1.60;;;0.80;;
72728;SDS011;60843;52.062;4.508;2023-04-03T16:57:36;3.20;;;0.80;;
72728;SDS011;60843;52.062;4.508;2023-04-03T17:00:01;1.83;;;0.50;;
72728;SDS011;60843;52.062;4.508;2023-04-03T17:02:27;1.35;;;0.60;;
72728;SDS011;60843;52.062;4.508;2023-04-03T17:04:54;2.63;;;0.57;;
72728;SDS011;60843;52.062;4.508;2023-04-03T17:07:20;5.28;;;2.25;;
72728;SDS011;60843;52.062;4.508;2023-04-03T17:09:46;2.90;;;0.88;;
72728;SDS011;60843;52.062;4.508;2023-04-03T17:12:12;1.95;;;0.75;;
72728;SDS011;60843;52.062;4.508;2023-04-03T17:14:38;1.27;;;0.55;;
72728;SDS011;60843;52.062;4.508;2023-04-03T17:17:03;2.58;;;0.70;;
72728;SDS011;60843;52.062;4.508;2023-04-03T17:19:29;2.20;;;0.90;;
72728;SDS011;60843;52.062;4.508;2023-04-03T17:21:55;2.42;;;0.82;;
72728;SDS011;60843;52.062;4.508;2023-04-03T17:24:20;3.05;;;0.80;;
72728;SDS011;60843;52.062;4.508;2023-04-03T17:26:46;1.53;;;0.63;;